sensor_id;sensor_type;location;lat;lon;timestamp;P1;durP1;ratioP1;P2;durP2;ratioP2
76631;SDS011;65526;48.578;-4.520;2024-01-15T00:00:20;32.17;;;12.75;;
76631;SDS011;65526;48.578;-4.520;2024-01-15T00:02:47;30.23;;;12.00;;
76631;SDS011;65526;48.578;-4.520;2024-01-15T00:05:14;30.02;;;12.27;;
76631;SDS011;65526;48.578;-4.520;2024-01-15T00:07:40;33.53;;;13.25;;
76631;SDS011;65526;48.578;-4.520;2024-01-15T00:10:07;35.13;;;13.25;;
76631;SDS011;65526;48.578;-4.520;2024-01-15T00:12:34;37.72;;;13.23;;
76631;SDS011;65526;48.578;-4.520;2024-01-15T00:15:01;35.28;;;14.52;;
76631;SDS011;65526;48.578;-4.520;2024-01-15T00:17:27;33.13;;;13.07;;
76631;SDS011;65526;48.578;-4.520;2024-01-15T00:19:53;33.80;;;12.93;;
76631;SDS011;65526;48.578;-4.520;2024-01-15T00:22:20;36.28;;;13.15;;
76631;SDS011;65526;48.578;-4.520;2024-01-15T00:24:46;36.67;;;12.85;;
76631;SDS011;65526;48.578;-4.520;2024-01-15T00:27:12;31.65;;;13.15;;
76631;SDS011;65526;48.578;-4.520;2024-01-15T00:29:39;35.15;;;12.93;;
76631;SDS011;65526;48.578;-4.520;2024-01-15T00:34:35;33.25;;;11.23;;
76631;SDS011;65526;48.578;-4.520;2024-01-15T00:37:02;36.95;;;12.93;;
76631;SDS011;65526;48.578;-4.520;2024-01-15T00:39:33;30.73;;;12.20;;
76631;SDS011;65526;48.578;-4.520;2024-01-15T00:41:59;31.95;;;11.82;;
76631;SDS011;65526;48.578;-4.520;2024-01-15T00:44:25;37.35;;;13.35;;
76631;SDS011;65526;48.578;-4.520;2024-01-15T00:46:52;32.75;;;12.55;;
76631;SDS011;65526;48.578;-4.520;2024-01-15T00:49:18;31.98;;;12.68;;
76631;SDS011;65526;48.578;-4.520;2024-01-15T00:51:45;31.83;;;12.75;;
76631;SDS011;65526;48.578;-4.520;2024-01-15T00:54:11;31.13;;;12.57;;
76631;SDS011;65526;48.578;-4.520;2024-01-15T00:56:37;29.20;;;11.80;;
76631;SDS011;65526;48.578;-4.520;2024-01-15T00:59:04;33.20;;;11.63;;
76631;SDS011;65526;48.578;-4.520;2024-01-15T01:01:31;31.10;;;12.52;;
76631;SDS011;65526;48.578;-4.520;2024-01-15T01:03:57;29.00;;;11.25;;
76631;SDS011;65526;48.578;-4.520;2024-01-15T01:06:24;32.95;;;11.73;;
76631;SDS011;65526;48.578;-4.520;2024-01-15T01:08:51;32.38;;;11.90;;
76631;SDS011;65526;48.578;-4.520;2024-01-15T01:11:17;25.30;;;12.32;;
76631;SDS011;65526;48.578;-4.520;2024-01-15T01:13:44;30.08;;;11.75;;
76631;SDS011;65526;48.578;-4.520;2024-01-15T01:16:10;34.08;;;12.27;;
76631;SDS011;65526;48.578;-4.520;2024-01-15T01:18:36;31.63;;;11.93;;
76631;SDS011;65526;48.578;-4.520;2024-01-15T01:21:03;30.98;;;11.63;;
76631;SDS011;65526;48.578;-4.520;2024-01-15T01:23:29;31.65;;;11.55;;
76631;SDS011;65526;48.578;-4.520;2024-01-15T01:25:56;28.73;;;11.15;;
76631;SDS011;65526;48.578;-4.520;2024-01-15T01:28:23;27.92;;;11.25;;
76631;SDS011;65526;48.578;-4.520;2024-01-15T01:30:49;29.27;;;11.80;;
76631;SDS011;65526;48.578;-4.520;2024-01-15T01:33:16;32.80;;;11.43;;
76631;SDS011;65526;48.578;-4.520;2024-01-15T01:35:42;26.52;;;10.68;;
76631;SDS011;65526;48.578;-4.520;2024-01-15T01:38:09;26.33;;;11.50;;
76631;SDS011;65526;48.578;-4.520;2024-01-15T01:40:36;30.67;;;11.45;;
76631;SDS011;65526;48.578;-4.520;2024-01-15T01:43:03;30.70;;;12.27;;
76631;SDS011;65526;48.578;-4.520;2024-01-15T01:45:30;29.45;;;11.15;;
76631;SDS011;65526;48.578;-4.520;2024-01-15T01:47:57;28.25;;;11.07;;
76631;SDS011;65526;48.578;-4.520;2024-01-15T01:50:23;31.83;;;10.00;;
76631;SDS011;65526;48.578;-4.520;2024-01-15T01:52:50;29.95;;;11.13;;
76631;SDS011;65526;48.578;-4.520;2024-01-15T01:55:16;31.23;;;11.07;;
76631;SDS011;65526;48.578;-4.520;2024-01-15T01:57:45;27.80;;;10.40;;
76631;SDS011;65526;48.578;-4.520;2024-01-15T02:00:11;27.27;;;10.93;;
76631;SDS011;65526;48.578;-4.520;2024-01-15T02:02:38;33.25;;;11.32;;
76631;SDS011;65526;48.578;-4.520;2024-01-15T02:05:05;29.98;;;11.80;;
76631;SDS011;65526;48.578;-4.520;2024-01-15T02:07:34;25.23;;;10.48;;
76631;SDS011;65526;48.578;-4.520;2024-01-15T02:10:00;30.20;;;11.27;;
76631;SDS011;65526;48.578;-4.520;2024-01-15T02:12:27;28.70;;;10.07;;
76631;SDS011;65526;48.578;-4.520;2024-01-15T02:14:53;23.65;;;9.48;;
76631;SDS011;65526;48.578;-4.520;2024-01-15T02:17:20;27.25;;;11.25;;
76631;SDS011;65526;48.578;-4.520;2024-01-15T02:19:46;28.35;;;9.80;;
76631;SDS011;65526;48.578;-4.520;2024-01-15T02:22:12;22.15;;;9.45;;
76631;SDS011;65526;48.578;-4.520;2024-01-15T02:24:39;25.38;;;10.07;;
76631;SDS011;65526;48.578;-4.520;2024-01-15T02:27:05;25.35;;;10.15;;
76631;SDS011;65526;48.578;-4.520;2024-01-15T02:29:33;23.83;;;9.98;;
76631;SDS011;65526;48.578;-4.520;2024-01-15T02:32:03;23.20;;;8.48;;
76631;SDS011;65526;48.578;-4.520;2024-01-15T02:34:33;21.55;;;9.48;;
76631;SDS011;65526;48.578;-4.520;2024-01-15T02:37:00;25.55;;;9.90;;
76631;SDS011;65526;48.578;-4.520;2024-01-15T02:39:27;25.63;;;10.63;;
76631;SDS011;65526;48.578;-4.520;2024-01-15T02:41:55;25.60;;;10.05;;
76631;SDS011;65526;48.578;-4.520;2024-01-15T02:44:23;27.38;;;10.20;;
76631;SDS011;65526;48.578;-4.520;2024-01-15T02:46:50;19.73;;;8.68;;
76631;SDS011;65526;48.578;-4.520;2024-01-15T02:49:16;23.95;;;9.63;;
76631;SDS011;65526;48.578;-4.520;2024-01-15T02:51:42;20.77;;;10.07;;
76631;SDS011;65526;48.578;-4.520;2024-01-15T02:54:09;19.85;;;8.95;;
76631;SDS011;65526;48.578;-4.520;2024-01-15T02:56:35;23.77;;;10.80;;
76631;SDS011;65526;48.578;-4.520;2024-01-15T02:59:02;26.35;;;9.70;;
76631;SDS011;65526;48.578;-4.520;2024-01-15T03:01:28;25.60;;;9.60;;
76631;SDS011;65526;48.578;-4.520;2024-01-15T03:03:54;20.90;;;9.43;;
76631;SDS011;65526;48.578;-4.520;2024-01-15T03:06:21;23.58;;;9.73;;
76631;SDS011;65526;48.578;-4.520;2024-01-15T03:08:47;20.35;;;9.05;;
76631;SDS011;65526;48.578;-4.520;2024-01-15T03:11:14;24.88;;;10.93;;
76631;SDS011;65526;48.578;-4.520;2024-01-15T03:13:40;26.77;;;10.23;;
76631;SDS011;65526;48.578;-4.520;2024-01-15T03:16:07;24.52;;;9.23;;
76631;SDS011;65526;48.578;-4.520;2024-01-15T03:18:33;24.80;;;9.38;;
76631;SDS011;65526;48.578;-4.520;2024-01-15T03:20:59;26.23;;;9.85;;
76631;SDS011;65526;48.578;-4.520;2024-01-15T03:23:27;26.55;;;10.95;;
76631;SDS011;65526;48.578;-4.520;2024-01-15T03:25:53;26.45;;;10.48;;
76631;SDS011;65526;48.578;-4.520;2024-01-15T03:28:20;24.75;;;10.15;;
76631;SDS011;65526;48.578;-4.520;2024-01-15T03:30:46;23.10;;;9.48;;
76631;SDS011;65526;48.578;-4.520;2024-01-15T03:33:12;28.75;;;11.10;;
76631;SDS011;65526;48.578;-4.520;2024-01-15T03:35:40;25.30;;;11.32;;
76631;SDS011;65526;48.578;-4.520;2024-01-15T03:38:06;27.38;;;10.25;;
76631;SDS011;65526;48.578;-4.520;2024-01-15T03:40:32;25.77;;;11.82;;
76631;SDS011;65526;48.578;-4.520;2024-01-15T03:42:59;23.95;;;9.85;;
76631;SDS011;65526;48.578;-4.520;2024-01-15T03:45:25;23.15;;;9.93;;
76631;SDS011;65526;48.578;-4.520;2024-01-15T03:47:52;24.38;;;9.45;;
76631;SDS011;65526;48.578;-4.520;2024-01-15T03:50:18;25.23;;;8.77;;
76631;SDS011;65526;48.578;-4.520;2024-01-15T03:52:45;20.42;;;9.00;;
76631;SDS011;65526;48.578;-4.520;2024-01-15T03:55:11;19.63;;;9.30;;
76631;SDS011;65526;48.578;-4.520;2024-01-15T03:57:38;21.52;;;8.98;;
76631;SDS011;65526;48.578;-4.520;2024-01-15T04:00:04;25.45;;;8.95;;
76631;SDS011;65526;48.578;-4.520;2024-01-15T04:02:31;22.30;;;9.25;;
76631;SDS011;65526;48.578;-4.520;2024-01-15T04:04:58;21.88;;;9.02;;
76631;SDS011;65526;48.578;-4.520;2024-01-15T04:07:24;22.63;;;9.23;;
76631;SDS011;65526;48.578;-4.520;2024-01-15T04:09:50;25.30;;;9.32;;
76631;SDS011;65526;48.578;-4.520;2024-01-15T04:12:17;23.40;;;8.70;;
76631;SDS011;65526;48.578;-4.520;2024-01-15T04:14:43;17.98;;;8.25;;
76631;SDS011;65526;48.578;-4.520;2024-01-15T04:17:10;24.63;;;9.05;;
76631;SDS011;65526;48.578;-4.520;2024-01-15T04:19:36;23.17;;;9.57;;
76631;SDS011;65526;48.578;-4.520;2024-01-15T04:22:02;23.25;;;9.07;;
76631;SDS011;65526;48.578;-4.520;2024-01-15T04:24:31;24.42;;;10.35;;
76631;SDS011;65526;48.578;-4.520;2024-01-15T04:26:58;29.02;;;10.32;;
76631;SDS011;65526;48.578;-4.520;2024-01-15T04:29:24;22.42;;;9.45;;
76631;SDS011;65526;48.578;-4.520;2024-01-15T04:31:51;23.65;;;9.57;;
76631;SDS011;65526;48.578;-4.520;2024-01-15T04:34:19;26.60;;;9.68;;
76631;SDS011;65526;48.578;-4.520;2024-01-15T04:36:45;26.73;;;9.27;;
76631;SDS011;65526;48.578;-4.520;2024-01-15T04:39:11;26.88;;;10.10;;
76631;SDS011;65526;48.578;-4.520;2024-01-15T04:41:38;27.75;;;10.40;;
76631;SDS011;65526;48.578;-4.520;2024-01-15T04:44:04;33.08;;;11.80;;
76631;SDS011;65526;48.578;-4.520;2024-01-15T04:46:30;27.75;;;11.13;;
76631;SDS011;65526;48.578;-4.520;2024-01-15T04:48:57;29.52;;;11.93;;
76631;SDS011;65526;48.578;-4.520;2024-01-15T04:51:23;26.00;;;10.35;;
76631;SDS011;65526;48.578;-4.520;2024-01-15T04:53:50;31.52;;;11.05;;
76631;SDS011;65526;48.578;-4.520;2024-01-15T04:56:16;29.73;;;11.45;;
76631;SDS011;65526;48.578;-4.520;2024-01-15T04:58:42;26.60;;;10.32;;
76631;SDS011;65526;48.578;-4.520;2024-01-15T05:01:09;23.88;;;10.25;;
76631;SDS011;65526;48.578;-4.520;2024-01-15T05:03:36;20.40;;;9.25;;
76631;SDS011;65526;48.578;-4.520;2024-01-15T05:06:02;27.77;;;10.57;;
76631;SDS011;65526;48.578;-4.520;2024-01-15T05:08:29;29.48;;;10.00;;
76631;SDS011;65526;48.578;-4.520;2024-01-15T05:10:55;22.95;;;9.82;;
76631;SDS011;65526;48.578;-4.520;2024-01-15T05:13:21;27.58;;;9.73;;
76631;SDS011;65526;48.578;-4.520;2024-01-15T05:15:48;25.58;;;9.70;;
76631;SDS011;65526;48.578;-4.520;2024-01-15T05:18:15;24.70;;;10.63;;
76631;SDS011;65526;48.578;-4.520;2024-01-15T05:20:41;23.90;;;9.88;;
76631;SDS011;65526;48.578;-4.520;2024-01-15T05:23:08;22.02;;;9.73;;
76631;SDS011;65526;48.578;-4.520;2024-01-15T05:25:34;18.67;;;8.65;;
76631;SDS011;65526;48.578;-4.520;2024-01-15T05:28:01;21.80;;;9.35;;
76631;SDS011;65526;48.578;-4.520;2024-01-15T05:30:28;23.85;;;9.85;;
76631;SDS011;65526;48.578;-4.520;2024-01-15T05:32:54;23.45;;;8.82;;
76631;SDS011;65526;48.578;-4.520;2024-01-15T05:35:20;21.38;;;9.65;;
76631;SDS011;65526;48.578;-4.520;2024-01-15T05:37:47;27.30;;;9.20;;
76631;SDS011;65526;48.578;-4.520;2024-01-15T05:40:14;24.45;;;10.10;;
76631;SDS011;65526;48.578;-4.520;2024-01-15T05:42:41;23.63;;;9.18;;
76631;SDS011;65526;48.578;-4.520;2024-01-15T05:45:07;20.60;;;8.52;;
76631;SDS011;65526;48.578;-4.520;2024-01-15T05:47:34;19.92;;;7.80;;
76631;SDS011;65526;48.578;-4.520;2024-01-15T05:50:01;21.17;;;8.43;;
76631;SDS011;65526;48.578;-4.520;2024-01-15T05:52:28;25.10;;;9.80;;
76631;SDS011;65526;48.578;-4.520;2024-01-15T05:54:54;28.40;;;11.68;;
76631;SDS011;65526;48.578;-4.520;2024-01-15T05:57:21;23.83;;;10.95;;
76631;SDS011;65526;48.578;-4.520;2024-01-15T05:59:47;25.02;;;10.82;;
76631;SDS011;65526;48.578;-4.520;2024-01-15T06:02:13;24.90;;;10.18;;
76631;SDS011;65526;48.578;-4.520;2024-01-15T06:04:40;27.15;;;10.10;;
76631;SDS011;65526;48.578;-4.520;2024-01-15T06:07:06;17.70;;;7.65;;
76631;SDS011;65526;48.578;-4.520;2024-01-15T06:09:33;5.43;;;1.40;;
76631;SDS011;65526;48.578;-4.520;2024-01-15T06:11:59;6.07;;;0.90;;
76631;SDS011;65526;48.578;-4.520;2024-01-15T06:14:25;5.90;;;1.30;;
76631;SDS011;65526;48.578;-4.520;2024-01-15T06:16:52;1.52;;;0.47;;
76631;SDS011;65526;48.578;-4.520;2024-01-15T06:19:18;5.38;;;1.48;;
76631;SDS011;65526;48.578;-4.520;2024-01-15T06:21:45;5.05;;;0.95;;
76631;SDS011;65526;48.578;-4.520;2024-01-15T06:24:11;3.33;;;0.70;;
76631;SDS011;65526;48.578;-4.520;2024-01-15T06:26:39;1.98;;;0.60;;
76631;SDS011;65526;48.578;-4.520;2024-01-15T06:29:05;3.65;;;0.80;;
76631;SDS011;65526;48.578;-4.520;2024-01-15T06:31:32;3.60;;;0.63;;
76631;SDS011;65526;48.578;-4.520;2024-01-15T06:33:58;1.50;;;0.60;;
76631;SDS011;65526;48.578;-4.520;2024-01-15T06:36:25;4.15;;;0.45;;
76631;SDS011;65526;48.578;-4.520;2024-01-15T06:38:51;4.57;;;0.68;;
76631;SDS011;65526;48.578;-4.520;2024-01-15T06:41:18;5.60;;;0.35;;
76631;SDS011;65526;48.578;-4.520;2024-01-15T06:43:44;2.53;;;0.73;;
76631;SDS011;65526;48.578;-4.520;2024-01-15T06:46:10;2.13;;;0.45;;
76631;SDS011;65526;48.578;-4.520;2024-01-15T06:48:37;3.95;;;0.50;;
76631;SDS011;65526;48.578;-4.520;2024-01-15T06:51:03;2.00;;;0.55;;
76631;SDS011;65526;48.578;-4.520;2024-01-15T06:53:30;2.03;;;0.47;;
76631;SDS011;65526;48.578;-4.520;2024-01-15T06:55:56;6.65;;;0.50;;
76631;SDS011;65526;48.578;-4.520;2024-01-15T06:58:23;3.55;;;0.47;;
76631;SDS011;65526;48.578;-4.520;2024-01-15T07:00:49;1.92;;;0.50;;
76631;SDS011;65526;48.578;-4.520;2024-01-15T07:03:16;2.38;;;0.40;;
76631;SDS011;65526;48.578;-4.520;2024-01-15T07:05:42;1.83;;;0.38;;
76631;SDS011;65526;48.578;-4.520;2024-01-15T07:08:08;4.05;;;0.60;;
76631;SDS011;65526;48.578;-4.520;2024-01-15T07:10:35;2.55;;;0.50;;
76631;SDS011;65526;48.578;-4.520;2024-01-15T07:13:01;4.95;;;0.60;;
76631;SDS011;65526;48.578;-4.520;2024-01-15T07:15:28;3.88;;;0.60;;
76631;SDS011;65526;48.578;-4.520;2024-01-15T07:17:54;5.60;;;0.43;;
76631;SDS011;65526;48.578;-4.520;2024-01-15T07:20:21;2.47;;;0.30;;
76631;SDS011;65526;48.578;-4.520;2024-01-15T07:22:47;0.73;;;0.30;;
76631;SDS011;65526;48.578;-4.520;2024-01-15T07:25:13;3.28;;;0.32;;
76631;SDS011;65526;48.578;-4.520;2024-01-15T07:27:41;4.18;;;0.82;;
76631;SDS011;65526;48.578;-4.520;2024-01-15T07:30:11;1.60;;;0.20;;
76631;SDS011;65526;48.578;-4.520;2024-01-15T07:32:38;1.00;;;0.30;;
76631;SDS011;65526;48.578;-4.520;2024-01-15T07:35:04;5.25;;;0.47;;
76631;SDS011;65526;48.578;-4.520;2024-01-15T07:37:31;1.90;;;0.40;;
76631;SDS011;65526;48.578;-4.520;2024-01-15T07:39:58;2.13;;;0.38;;
76631;SDS011;65526;48.578;-4.520;2024-01-15T07:42:24;2.53;;;0.45;;
76631;SDS011;65526;48.578;-4.520;2024-01-15T07:44:50;1.27;;;0.70;;
76631;SDS011;65526;48.578;-4.520;2024-01-15T07:47:17;1.35;;;0.22;;
76631;SDS011;65526;48.578;-4.520;2024-01-15T07:49:44;0.32;;;0.17;;
76631;SDS011;65526;48.578;-4.520;2024-01-15T07:52:10;2.22;;;0.28;;
76631;SDS011;65526;48.578;-4.520;2024-01-15T07:54:38;1.58;;;0.22;;
76631;SDS011;65526;48.578;-4.520;2024-01-15T07:57:05;1.65;;;0.35;;
76631;SDS011;65526;48.578;-4.520;2024-01-15T07:59:31;1.80;;;0.30;;
76631;SDS011;65526;48.578;-4.520;2024-01-15T08:01:58;2.03;;;0.32;;
76631;SDS011;65526;48.578;-4.520;2024-01-15T08:04:25;5.35;;;0.47;;
76631;SDS011;65526;48.578;-4.520;2024-01-15T08:06:51;2.85;;;0.52;;
76631;SDS011;65526;48.578;-4.520;2024-01-15T08:09:18;0.45;;;0.20;;
76631;SDS011;65526;48.578;-4.520;2024-01-15T08:11:45;0.63;;;0.38;;
76631;SDS011;65526;48.578;-4.520;2024-01-15T08:14:11;2.72;;;0.20;;
76631;SDS011;65526;48.578;-4.520;2024-01-15T08:16:39;2.10;;;0.20;;
76631;SDS011;65526;48.578;-4.520;2024-01-15T08:19:06;1.33;;;0.20;;
76631;SDS011;65526;48.578;-4.520;2024-01-15T08:21:32;2.92;;;0.43;;
76631;SDS011;65526;48.578;-4.520;2024-01-15T08:24:00;1.13;;;0.28;;
76631;SDS011;65526;48.578;-4.520;2024-01-15T08:26:27;0.45;;;0.40;;
76631;SDS011;65526;48.578;-4.520;2024-01-15T08:28:54;0.10;;;0.10;;
76631;SDS011;65526;48.578;-4.520;2024-01-15T08:31:21;0.25;;;0.10;;
76631;SDS011;65526;48.578;-4.520;2024-01-15T08:33:48;2.53;;;0.60;;
76631;SDS011;65526;48.578;-4.520;2024-01-15T08:36:14;2.65;;;0.35;;
76631;SDS011;65526;48.578;-4.520;2024-01-15T08:38:40;1.10;;;0.17;;
76631;SDS011;65526;48.578;-4.520;2024-01-15T08:41:07;1.35;;;0.30;;
76631;SDS011;65526;48.578;-4.520;2024-01-15T08:43:34;0.63;;;0.20;;
76631;SDS011;65526;48.578;-4.520;2024-01-15T08:46:01;0.40;;;0.05;;
76631;SDS011;65526;48.578;-4.520;2024-01-15T08:48:28;1.60;;;0.30;;
76631;SDS011;65526;48.578;-4.520;2024-01-15T08:50:55;1.98;;;0.15;;
76631;SDS011;65526;48.578;-4.520;2024-01-15T08:53:22;0.22;;;0.10;;
76631;SDS011;65526;48.578;-4.520;2024-01-15T08:55:49;1.20;;;0.52;;
76631;SDS011;65526;48.578;-4.520;2024-01-15T08:58:15;3.47;;;0.40;;
76631;SDS011;65526;48.578;-4.520;2024-01-15T09:00:42;1.55;;;0.25;;
76631;SDS011;65526;48.578;-4.520;2024-01-15T09:03:08;1.25;;;0.30;;
76631;SDS011;65526;48.578;-4.520;2024-01-15T09:05:35;1.08;;;0.50;;
76631;SDS011;65526;48.578;-4.520;2024-01-15T09:08:02;1.67;;;0.13;;
76631;SDS011;65526;48.578;-4.520;2024-01-15T09:10:28;0.85;;;0.10;;
76631;SDS011;65526;48.578;-4.520;2024-01-15T09:12:55;2.17;;;0.50;;
76631;SDS011;65526;48.578;-4.520;2024-01-15T09:15:22;0.30;;;0.13;;
76631;SDS011;65526;48.578;-4.520;2024-01-15T09:17:49;1.08;;;0.10;;
76631;SDS011;65526;48.578;-4.520;2024-01-15T09:20:15;0.47;;;0.20;;
76631;SDS011;65526;48.578;-4.520;2024-01-15T09:22:42;1.85;;;0.10;;
76631;SDS011;65526;48.578;-4.520;2024-01-15T09:25:08;1.30;;;0.28;;
76631;SDS011;65526;48.578;-4.520;2024-01-15T09:27:35;0.73;;;0.30;;
76631;SDS011;65526;48.578;-4.520;2024-01-15T09:30:03;1.00;;;0.30;;
76631;SDS011;65526;48.578;-4.520;2024-01-15T09:32:30;2.33;;;0.50;;
76631;SDS011;65526;48.578;-4.520;2024-01-15T09:34:58;1.98;;;0.30;;
76631;SDS011;65526;48.578;-4.520;2024-01-15T09:37:25;2.00;;;0.30;;
76631;SDS011;65526;48.578;-4.520;2024-01-15T09:39:52;0.93;;;0.32;;
76631;SDS011;65526;48.578;-4.520;2024-01-15T09:42:19;0.10;;;0.10;;
76631;SDS011;65526;48.578;-4.520;2024-01-15T09:44:46;0.90;;;0.17;;
76631;SDS011;65526;48.578;-4.520;2024-01-15T09:47:14;2.85;;;0.30;;
76631;SDS011;65526;48.578;-4.520;2024-01-15T09:49:42;1.30;;;0.43;;
76631;SDS011;65526;48.578;-4.520;2024-01-15T09:52:08;1.02;;;0.30;;
76631;SDS011;65526;48.578;-4.520;2024-01-15T09:54:37;1.23;;;0.17;;
76631;SDS011;65526;48.578;-4.520;2024-01-15T09:57:04;3.33;;;0.30;;
76631;SDS011;65526;48.578;-4.520;2024-01-15T09:59:32;0.80;;;0.30;;
76631;SDS011;65526;48.578;-4.520;2024-01-15T10:01:59;1.13;;;0.28;;
76631;SDS011;65526;48.578;-4.520;2024-01-15T10:04:27;5.25;;;0.50;;
76631;SDS011;65526;48.578;-4.520;2024-01-15T10:06:54;1.63;;;0.30;;
76631;SDS011;65526;48.578;-4.520;2024-01-15T10:09:23;2.85;;;0.40;;
76631;SDS011;65526;48.578;-4.520;2024-01-15T10:11:49;3.17;;;0.30;;
76631;SDS011;65526;48.578;-4.520;2024-01-15T10:14:16;2.72;;;0.50;;
76631;SDS011;65526;48.578;-4.520;2024-01-15T10:16:42;1.23;;;0.65;;
76631;SDS011;65526;48.578;-4.520;2024-01-15T10:19:09;1.70;;;0.40;;
76631;SDS011;65526;48.578;-4.520;2024-01-15T10:21:35;0.20;;;0.10;;
76631;SDS011;65526;48.578;-4.520;2024-01-15T10:24:03;1.85;;;0.28;;
76631;SDS011;65526;48.578;-4.520;2024-01-15T10:26:30;10.02;;;0.55;;
76631;SDS011;65526;48.578;-4.520;2024-01-15T10:28:58;1.95;;;0.30;;
76631;SDS011;65526;48.578;-4.520;2024-01-15T10:31:27;4.47;;;0.50;;
76631;SDS011;65526;48.578;-4.520;2024-01-15T10:33:54;4.18;;;0.52;;
76631;SDS011;65526;48.578;-4.520;2024-01-15T10:36:41;3.63;;;0.30;;
76631;SDS011;65526;48.578;-4.520;2024-01-15T10:39:13;1.83;;;0.28;;
76631;SDS011;65526;48.578;-4.520;2024-01-15T10:41:39;3.85;;;0.40;;
76631;SDS011;65526;48.578;-4.520;2024-01-15T10:44:06;2.55;;;0.85;;
76631;SDS011;65526;48.578;-4.520;2024-01-15T10:46:32;1.50;;;0.22;;
76631;SDS011;65526;48.578;-4.520;2024-01-15T10:49:01;3.10;;;0.60;;
76631;SDS011;65526;48.578;-4.520;2024-01-15T10:51:28;0.90;;;0.32;;
76631;SDS011;65526;48.578;-4.520;2024-01-15T10:53:55;2.80;;;0.30;;
76631;SDS011;65526;48.578;-4.520;2024-01-15T10:56:23;4.25;;;0.60;;
76631;SDS011;65526;48.578;-4.520;2024-01-15T10:58:51;5.70;;;0.47;;
76631;SDS011;65526;48.578;-4.520;2024-01-15T11:01:20;0.70;;;0.30;;
76631;SDS011;65526;48.578;-4.520;2024-01-15T11:03:47;4.40;;;0.55;;
76631;SDS011;65526;48.578;-4.520;2024-01-15T11:06:20;3.30;;;0.40;;
76631;SDS011;65526;48.578;-4.520;2024-01-15T11:08:51;4.95;;;0.50;;
76631;SDS011;65526;48.578;-4.520;2024-01-15T11:11:19;2.75;;;0.95;;
76631;SDS011;65526;48.578;-4.520;2024-01-15T11:13:47;3.75;;;0.40;;
76631;SDS011;65526;48.578;-4.520;2024-01-15T11:16:16;1.02;;;0.20;;
76631;SDS011;65526;48.578;-4.520;2024-01-15T11:18:43;2.88;;;0.38;;
76631;SDS011;65526;48.578;-4.520;2024-01-15T11:21:28;1.65;;;0.30;;
76631;SDS011;65526;48.578;-4.520;2024-01-15T11:23:58;5.70;;;0.93;;
76631;SDS011;65526;48.578;-4.520;2024-01-15T11:26:45;1.90;;;0.30;;
76631;SDS011;65526;48.578;-4.520;2024-01-15T11:29:28;3.67;;;0.38;;
76631;SDS011;65526;48.578;-4.520;2024-01-15T11:32:04;6.20;;;0.63;;
76631;SDS011;65526;48.578;-4.520;2024-01-15T11:34:51;3.92;;;0.50;;
76631;SDS011;65526;48.578;-4.520;2024-01-15T11:37:18;1.40;;;0.32;;
76631;SDS011;65526;48.578;-4.520;2024-01-15T11:39:45;2.33;;;0.32;;
76631;SDS011;65526;48.578;-4.520;2024-01-15T11:42:13;2.08;;;0.32;;
76631;SDS011;65526;48.578;-4.520;2024-01-15T11:44:40;2.22;;;0.70;;
76631;SDS011;65526;48.578;-4.520;2024-01-15T11:47:11;1.50;;;0.55;;
76631;SDS011;65526;48.578;-4.520;2024-01-15T11:55:11;1.55;;;0.50;;
76631;SDS011;65526;48.578;-4.520;2024-01-15T11:57:45;3.40;;;0.55;;
76631;SDS011;65526;48.578;-4.520;2024-01-15T12:00:15;0.30;;;0.22;;
76631;SDS011;65526;48.578;-4.520;2024-01-15T12:02:43;2.83;;;0.40;;
76631;SDS011;65526;48.578;-4.520;2024-01-15T12:05:14;3.92;;;0.30;;
76631;SDS011;65526;48.578;-4.520;2024-01-15T12:07:42;0.35;;;0.25;;
76631;SDS011;65526;48.578;-4.520;2024-01-15T12:10:10;1.15;;;0.50;;
76631;SDS011;65526;48.578;-4.520;2024-01-15T12:12:43;4.30;;;0.52;;
76631;SDS011;65526;48.578;-4.520;2024-01-15T12:15:32;4.60;;;0.75;;
76631;SDS011;65526;48.578;-4.520;2024-01-15T12:17:59;3.17;;;0.40;;
76631;SDS011;65526;48.578;-4.520;2024-01-15T12:20:28;2.47;;;0.75;;
76631;SDS011;65526;48.578;-4.520;2024-01-15T12:22:56;5.22;;;0.40;;
76631;SDS011;65526;48.578;-4.520;2024-01-15T12:25:23;3.83;;;0.30;;
76631;SDS011;65526;48.578;-4.520;2024-01-15T12:27:51;4.15;;;0.40;;
76631;SDS011;65526;48.578;-4.520;2024-01-15T12:30:17;2.97;;;0.40;;
76631;SDS011;65526;48.578;-4.520;2024-01-15T12:32:44;1.83;;;0.28;;
76631;SDS011;65526;48.578;-4.520;2024-01-15T12:35:13;1.95;;;0.63;;
76631;SDS011;65526;48.578;-4.520;2024-01-15T12:37:41;3.03;;;0.50;;
76631;SDS011;65526;48.578;-4.520;2024-01-15T12:40:09;1.55;;;0.20;;
76631;SDS011;65526;48.578;-4.520;2024-01-15T12:42:36;2.58;;;0.30;;
76631;SDS011;65526;48.578;-4.520;2024-01-15T12:45:04;5.72;;;0.50;;
76631;SDS011;65526;48.578;-4.520;2024-01-15T12:47:32;2.17;;;0.45;;
76631;SDS011;65526;48.578;-4.520;2024-01-15T12:49:58;1.60;;;0.20;;
76631;SDS011;65526;48.578;-4.520;2024-01-15T12:52:28;3.65;;;0.40;;
76631;SDS011;65526;48.578;-4.520;2024-01-15T12:54:55;1.17;;;0.20;;
76631;SDS011;65526;48.578;-4.520;2024-01-15T12:57:22;1.65;;;0.30;;
76631;SDS011;65526;48.578;-4.520;2024-01-15T12:59:48;2.58;;;0.38;;
76631;SDS011;65526;48.578;-4.520;2024-01-15T13:02:16;1.95;;;0.50;;
76631;SDS011;65526;48.578;-4.520;2024-01-15T13:04:42;2.60;;;0.20;;
76631;SDS011;65526;48.578;-4.520;2024-01-15T13:07:09;2.53;;;0.30;;
76631;SDS011;65526;48.578;-4.520;2024-01-15T13:09:38;3.80;;;0.40;;
76631;SDS011;65526;48.578;-4.520;2024-01-15T13:12:10;1.95;;;0.30;;
76631;SDS011;65526;48.578;-4.520;2024-01-15T13:14:37;3.75;;;0.40;;
76631;SDS011;65526;48.578;-4.520;2024-01-15T13:17:04;1.50;;;0.30;;
76631;SDS011;65526;48.578;-4.520;2024-01-15T13:19:30;4.20;;;0.30;;
76631;SDS011;65526;48.578;-4.520;2024-01-15T13:21:58;5.28;;;0.50;;
76631;SDS011;65526;48.578;-4.520;2024-01-15T13:24:26;4.45;;;0.43;;
76631;SDS011;65526;48.578;-4.520;2024-01-15T13:26:52;0.80;;;0.30;;
76631;SDS011;65526;48.578;-4.520;2024-01-15T13:29:18;3.35;;;0.32;;
76631;SDS011;65526;48.578;-4.520;2024-01-15T13:31:47;2.88;;;0.20;;
76631;SDS011;65526;48.578;-4.520;2024-01-15T13:34:14;4.40;;;0.40;;
76631;SDS011;65526;48.578;-4.520;2024-01-15T13:36:40;6.15;;;0.30;;
76631;SDS011;65526;48.578;-4.520;2024-01-15T13:39:07;1.35;;;0.32;;
76631;SDS011;65526;48.578;-4.520;2024-01-15T13:41:36;2.00;;;0.20;;
76631;SDS011;65526;48.578;-4.520;2024-01-15T13:44:03;4.28;;;0.30;;
76631;SDS011;65526;48.578;-4.520;2024-01-15T13:46:29;2.42;;;0.80;;
76631;SDS011;65526;48.578;-4.520;2024-01-15T13:48:56;3.13;;;0.30;;
76631;SDS011;65526;48.578;-4.520;2024-01-15T13:51:22;4.07;;;0.38;;
76631;SDS011;65526;48.578;-4.520;2024-01-15T13:53:52;2.15;;;0.40;;
76631;SDS011;65526;48.578;-4.520;2024-01-15T13:56:19;5.40;;;0.95;;
76631;SDS011;65526;48.578;-4.520;2024-01-15T13:58:45;3.08;;;0.35;;
76631;SDS011;65526;48.578;-4.520;2024-01-15T14:01:12;2.70;;;0.22;;
76631;SDS011;65526;48.578;-4.520;2024-01-15T14:03:38;0.73;;;0.22;;
76631;SDS011;65526;48.578;-4.520;2024-01-15T14:06:05;1.27;;;0.85;;
76631;SDS011;65526;48.578;-4.520;2024-01-15T14:08:35;3.90;;;0.32;;
76631;SDS011;65526;48.578;-4.520;2024-01-15T14:11:03;2.78;;;0.40;;
76631;SDS011;65526;48.578;-4.520;2024-01-15T14:13:32;2.53;;;0.30;;
76631;SDS011;65526;48.578;-4.520;2024-01-15T14:15:59;3.97;;;0.50;;
76631;SDS011;65526;48.578;-4.520;2024-01-15T14:18:26;2.15;;;0.25;;
76631;SDS011;65526;48.578;-4.520;2024-01-15T14:20:53;0.93;;;0.20;;
76631;SDS011;65526;48.578;-4.520;2024-01-15T14:23:20;1.45;;;0.43;;
76631;SDS011;65526;48.578;-4.520;2024-01-15T14:25:47;5.40;;;0.40;;
76631;SDS011;65526;48.578;-4.520;2024-01-15T14:28:13;0.82;;;0.30;;
76631;SDS011;65526;48.578;-4.520;2024-01-15T14:30:40;4.03;;;0.30;;
76631;SDS011;65526;48.578;-4.520;2024-01-15T14:33:06;3.03;;;0.40;;